createdAt,value
2019-01-31T00:02:57.301Z,97661.09
2019-01-31T00:06:29.677Z,97656.00
2019-01-31T00:09:56.130Z,97651.09
2019-01-31T00:13:06.400Z,97647.63
2019-01-31T00:16:42.212Z,97650.30
2019-01-31T00:19:38.487Z,97650.42
2019-01-31T00:23:15.263Z,97644.05
2019-01-31T00:26:33.246Z,97647.36
2019-01-31T00:30:33.229Z,97645.00
2019-01-31T00:34:04.703Z,97650.15
2019-01-31T00:38:04.298Z,97647.67
2019-01-31T00:41:21.753Z,97645.56
2019-01-31T00:44:46.586Z,97647.67
2019-01-31T00:48:07.301Z,97651.61
2019-01-31T00:51:22.064Z,97650.38
2019-01-31T00:55:01.370Z,97642.59
2019-01-31T00:58:19.264Z,97639.58
2019-01-31T01:01:41.275Z,97641.98
2019-01-31T01:04:59.700Z,97637.93
2019-01-31T01:08:43.812Z,97642.86
2019-01-31T01:12:05.105Z,97644.79
2019-01-31T01:15:28.850Z,97642.10
2019-01-31T01:19:06.401Z,97640.70
2019-01-31T01:22:22.305Z,97640.88
2019-01-31T01:26:13.414Z,97631.58
2019-01-31T01:29:31.236Z,97636.50
2019-01-31T01:32:40.264Z,97639.23
2019-01-31T01:36:11.417Z,97637.81
2019-01-31T01:39:19.249Z,97636.91
2019-01-31T01:42:24.229Z,97633.54
2019-01-31T01:45:34.901Z,97635.02
2019-01-31T01:48:59.536Z,97640.22
2019-01-31T01:52:40.583Z,97644.84
2019-01-31T01:56:21.528Z,97635.73
2019-01-31T01:59:35.839Z,97632.10
2019-01-31T02:03:27.069Z,97626.31
2019-01-31T02:06:56.967Z,97618.06
2019-01-31T02:10:31.730Z,97618.17
2019-01-31T02:13:51.228Z,97618.37
2019-01-31T02:17:08.098Z,97615.62
2019-01-31T02:20:24.935Z,97605.86
2019-01-31T02:23:33.840Z,97605.49
2019-01-31T02:26:59.609Z,97600.33
2019-01-31T02:29:58.079Z,97586.41
2019-01-31T02:33:32.893Z,97591.39
2019-01-31T02:37:04.829Z,97589.08
2019-01-31T02:40:46.629Z,97579.55
2019-01-31T02:43:56.535Z,97577.33
2019-01-31T02:47:12.851Z,97571.08
2019-01-31T02:50:29.135Z,97567.08
2019-01-31T02:53:51.474Z,97569.41
2019-01-31T02:56:47.516Z,97568.95
2019-01-31T02:59:58.908Z,97567.66
2019-01-31T03:03:14.984Z,97572.16
2019-01-31T03:06:30.075Z,97572.45
2019-01-31T03:10:17.692Z,97568.11
2019-01-31T03:13:29.491Z,97558.77
2019-01-31T03:16:54.758Z,97556.33
2019-01-31T03:20:16.762Z,97555.28
2019-01-31T03:23:44.951Z,97552.08
2019-01-31T03:27:15.433Z,97550.16
2019-01-31T03:30:28.613Z,97550.91
2019-01-31T03:33:45.095Z,97542.20
2019-01-31T03:37:22.618Z,97531.50
2019-01-31T03:40:51.418Z,97526.11
2019-01-31T03:44:13.301Z,97523.56
2019-01-31T03:47:45.007Z,97524.03
2019-01-31T03:50:59.599Z,97519.20
2019-01-31T03:54:30.739Z,97514.68
2019-01-31T03:57:34.660Z,97507.36
2019-01-31T04:00:41.707Z,97508.77
2019-01-31T04:03:34.387Z,97509.83
2019-01-31T04:06:20.471Z,97512.00
2019-01-31T04:08:52.597Z,97503.88
2019-01-31T04:11:24.731Z,97498.53
2019-01-31T04:13:56.838Z,97489.45
2019-01-31T04:16:29.061Z,97485.05
2019-01-31T04:19:01.187Z,97490.31
2019-01-31T04:21:33.327Z,97494.15
2019-01-31T04:24:05.445Z,97492.68
2019-01-31T04:26:37.577Z,97491.73
2019-01-31T04:29:10.181Z,97497.36
2019-01-31T04:31:42.393Z,97482.87
2019-01-31T04:34:14.526Z,97485.08
2019-01-31T04:36:46.664Z,97488.65
2019-01-31T04:39:18.835Z,97481.61
2019-01-31T04:41:51.169Z,97483.81
2019-01-31T04:44:23.808Z,97481.45
2019-01-31T04:46:56.056Z,97488.13
2019-01-31T04:49:28.201Z,97488.35
2019-01-31T04:52:00.462Z,97493.08
2019-01-31T04:54:32.663Z,97498.90
2019-01-31T04:57:04.812Z,97502.52
2019-01-31T04:59:36.930Z,97502.21
2019-01-31T05:02:09.154Z,97487.92
2019-01-31T05:04:41.333Z,97500.63
2019-01-31T05:07:13.481Z,97488.30
2019-01-31T05:09:45.659Z,97491.28
2019-01-31T05:12:17.897Z,97479.24
2019-01-31T05:14:50.009Z,97477.36
2019-01-31T05:17:22.150Z,97481.77
2019-01-31T05:19:54.270Z,97477.25
2019-01-31T05:22:26.413Z,97475.94
2019-01-31T05:24:58.520Z,97472.56
2019-01-31T05:27:30.680Z,97474.83
2019-01-31T05:30:02.801Z,97475.23
2019-01-31T05:32:34.938Z,97472.19
2019-01-31T05:35:07.874Z,97468.83
2019-01-31T05:37:40.022Z,97470.52
2019-01-31T05:40:14.663Z,97468.19
2019-01-31T05:42:46.904Z,97464.94
2019-01-31T05:45:19.018Z,97467.44
2019-01-31T05:47:51.231Z,97472.55
2019-01-31T05:50:23.345Z,97468.34
2019-01-31T05:52:55.494Z,97468.75
2019-01-31T05:55:27.686Z,97466.69
2019-01-31T05:57:59.811Z,97472.11
2019-01-31T06:00:36.248Z,97474.01
2019-01-31T06:03:08.389Z,97470.91
2019-01-31T06:05:40.498Z,97473.94
2019-01-31T06:08:12.644Z,97476.63
2019-01-31T06:10:44.754Z,97484.28
2019-01-31T06:13:16.899Z,97492.02
2019-01-31T06:15:49.113Z,97497.80
2019-01-31T06:18:21.267Z,97493.43
2019-01-31T06:20:53.375Z,97492.66
2019-01-31T06:23:25.515Z,97494.16
2019-01-31T06:25:57.636Z,97496.42
2019-01-31T06:28:29.842Z,97495.09
2019-01-31T06:31:02.272Z,97503.16
2019-01-31T06:33:34.452Z,97511.97
2019-01-31T06:36:06.745Z,97518.34
2019-01-31T06:38:40.353Z,97517.23
2019-01-31T06:41:18.691Z,97526.38
2019-01-31T06:43:47.709Z,97521.22
2019-01-31T06:46:19.956Z,97527.22
2019-01-31T06:48:52.748Z,97528.73
2019-01-31T06:51:25.080Z,97534.99
2019-01-31T06:53:57.344Z,97534.78
2019-01-31T06:56:29.548Z,97536.47
2019-01-31T06:59:01.865Z,97535.23
2019-01-31T07:01:34.264Z,97542.35
2019-01-31T07:04:06.441Z,97542.55
2019-01-31T07:06:38.752Z,97545.08
2019-01-31T07:09:12.220Z,97543.39
2019-01-31T07:11:44.409Z,97553.55
2019-01-31T07:14:16.562Z,97552.98
2019-01-31T07:16:48.773Z,97556.33
2019-01-31T07:19:20.927Z,97559.53
2019-01-31T07:21:53.131Z,97565.91
2019-01-31T07:24:25.282Z,97566.66
2019-01-31T07:26:57.400Z,97563.66
2019-01-31T07:29:29.539Z,97564.38
2019-01-31T07:32:03.644Z,97566.95
2019-01-31T07:34:35.504Z,97574.70
2019-01-31T07:37:07.588Z,97563.48
2019-01-31T07:39:39.735Z,97569.02
2019-01-31T07:42:11.896Z,97567.75
2019-01-31T07:44:44.067Z,97569.75
2019-01-31T07:47:16.236Z,97565.17
2019-01-31T07:49:48.385Z,97570.11
2019-01-31T07:52:20.686Z,97582.64
2019-01-31T07:54:52.961Z,97576.74
2019-01-31T07:57:25.073Z,97575.89
2019-01-31T07:59:57.233Z,97577.63
2019-01-31T08:02:29.348Z,97577.55
2019-01-31T08:05:01.497Z,97578.90
2019-01-31T08:07:33.793Z,97580.22
2019-01-31T08:10:08.802Z,97582.17
2019-01-31T08:12:40.998Z,97581.09
2019-01-31T08:15:15.440Z,97583.45
2019-01-31T08:17:47.557Z,97571.89
2019-01-31T08:20:19.979Z,97571.25
2019-01-31T08:22:52.181Z,97568.08
2019-01-31T08:25:24.754Z,97567.09
2019-01-31T08:27:56.939Z,97568.63
2019-01-31T08:30:32.718Z,97563.03
2019-01-31T08:33:04.923Z,97567.45
2019-01-31T08:35:37.220Z,97567.78
2019-01-31T08:38:09.348Z,97568.36
2019-01-31T08:40:41.983Z,97569.47
2019-01-31T08:43:14.504Z,97574.73
2019-01-31T08:45:46.756Z,97576.14
2019-01-31T08:48:20.513Z,97573.52
2019-01-31T08:50:52.744Z,97574.78
2019-01-31T08:53:24.890Z,97580.41
2019-01-31T08:55:57.138Z,97576.97
2019-01-31T08:58:29.288Z,97576.59
2019-01-31T09:01:01.447Z,97581.45
2019-01-31T09:03:33.719Z,97578.06
2019-01-31T09:06:06.142Z,97583.69
2019-01-31T09:08:38.346Z,97585.06
2019-01-31T09:11:10.634Z,97585.59
2019-01-31T09:13:42.751Z,97584.91
2019-01-31T09:16:15.052Z,97581.64
2019-01-31T09:18:47.249Z,97582.20
2019-01-31T09:22:06.732Z,97585.98
2019-01-31T09:25:41.352Z,97585.63
2019-01-31T09:29:14.912Z,97583.89
2019-01-31T09:32:37.851Z,97588.36
2019-01-31T09:35:38.835Z,97590.09
2019-01-31T09:39:10.749Z,97585.41
2019-01-31T09:42:34.043Z,97592.61
2019-01-31T09:45:58.417Z,97589.04
2019-01-31T09:49:19.978Z,97597.30
2019-01-31T09:52:28.418Z,97597.77
2019-01-31T09:55:28.201Z,97598.88
2019-01-31T09:58:59.298Z,97600.04
2019-01-31T10:02:41.593Z,97602.72
2019-01-31T10:06:14.216Z,97603.82
2019-01-31T10:09:29.985Z,97602.45
2019-01-31T10:12:49.710Z,97601.75
2019-01-31T10:16:12.590Z,97604.53
2019-01-31T10:19:51.194Z,97603.16
2019-01-31T10:23:57.590Z,97601.95
2019-01-31T10:27:02.287Z,97603.59
2019-01-31T10:30:36.902Z,97601.36
2019-01-31T10:34:07.055Z,97597.58
2019-01-31T10:37:35.750Z,97601.38
2019-01-31T10:41:14.078Z,97592.10
2019-01-31T10:44:35.763Z,97587.42
2019-01-31T10:48:17.437Z,97587.67
2019-01-31T10:52:04.375Z,97583.67
2019-01-31T10:55:18.370Z,97581.70
2019-01-31T10:58:47.452Z,97574.50
2019-01-31T11:02:06.777Z,97569.48
2019-01-31T11:05:13.553Z,97566.75
2019-01-31T11:08:02.856Z,97565.47
2019-01-31T11:11:16.558Z,97552.66
2019-01-31T11:14:50.542Z,97551.73
2019-01-31T11:18:14.472Z,97546.64
2019-01-31T11:21:50.568Z,97547.78
2019-01-31T11:25:14.249Z,97547.39
2019-01-31T11:28:51.429Z,97541.00
2019-01-31T11:31:58.888Z,97544.65
2019-01-31T11:35:44.954Z,97536.47
2019-01-31T11:39:19.697Z,97533.47
2019-01-31T11:42:45.659Z,97533.83
2019-01-31T11:46:00.430Z,97532.72
2019-01-31T11:49:10.527Z,97531.34
2019-01-31T11:52:54.603Z,97531.63
2019-01-31T11:56:01.524Z,97526.45
2019-01-31T11:59:02.061Z,97525.16
2019-01-31T12:01:36.768Z,97524.65
2019-01-31T12:04:15.530Z,97521.38
2019-01-31T12:06:47.732Z,97519.57
2019-01-31T12:09:21.744Z,97512.86
2019-01-31T12:11:53.917Z,97514.09
2019-01-31T12:14:26.010Z,97508.77
2019-01-31T12:16:58.206Z,97511.23
2019-01-31T12:19:30.351Z,97509.53
2019-01-31T12:22:02.559Z,97506.41
2019-01-31T12:24:34.783Z,97509.63
2019-01-31T12:27:07.127Z,97510.26
2019-01-31T12:29:39.298Z,97512.35
2019-01-31T12:32:11.432Z,97510.45
2019-01-31T12:34:43.748Z,97514.61
2019-01-31T12:37:15.912Z,97508.44
2019-01-31T12:39:48.203Z,97515.44
2019-01-31T12:42:20.319Z,97505.88
2019-01-31T12:44:52.682Z,97509.34
2019-01-31T12:47:24.894Z,97507.61
2019-01-31T12:49:57.013Z,97508.72
2019-01-31T12:52:29.263Z,97512.59
2019-01-31T12:55:01.498Z,97508.65
2019-01-31T12:57:33.711Z,97508.84
2019-01-31T13:00:28.814Z,97507.46
2019-01-31T13:03:01.019Z,97506.83
2019-01-31T13:05:35.132Z,97510.05
2019-01-31T13:08:07.587Z,97505.61
2019-01-31T13:10:39.984Z,97503.87
2019-01-31T13:13:12.089Z,97501.66
2019-01-31T13:15:44.496Z,97502.02
2019-01-31T13:18:17.232Z,97502.11
2019-01-31T13:20:49.762Z,97499.73
2019-01-31T13:23:22.231Z,97498.98
2019-01-31T13:25:54.500Z,97501.23
2019-01-31T13:28:26.646Z,97495.28
2019-01-31T13:30:58.784Z,97503.06
2019-01-31T13:33:31.003Z,97497.45
2019-01-31T13:36:03.276Z,97502.13
2019-01-31T13:38:35.493Z,97490.90
2019-01-31T13:41:07.620Z,97492.56
2019-01-31T13:43:39.836Z,97485.02
2019-01-31T13:46:11.962Z,97479.88
2019-01-31T13:48:44.258Z,97479.97
2019-01-31T13:51:16.830Z,97469.72
2019-01-31T13:53:49.601Z,97470.04
2019-01-31T13:56:23.757Z,97470.55
2019-01-31T13:58:56.226Z,97474.47
2019-01-31T14:01:28.987Z,97474.34
2019-01-31T14:04:03.072Z,97468.02
2019-01-31T14:06:35.471Z,97467.79
2019-01-31T14:09:09.495Z,97469.25
2019-01-31T14:11:42.690Z,97466.92
2019-01-31T14:14:14.996Z,97469.25
2019-01-31T14:16:48.124Z,97462.56
2019-01-31T14:19:20.393Z,97471.47
2019-01-31T14:21:52.695Z,97470.64
2019-01-31T14:24:25.018Z,97472.66
2019-01-31T14:27:17.918Z,97472.53
2019-01-31T14:29:50.189Z,97473.25
2019-01-31T14:32:22.699Z,97479.81
2019-01-31T14:34:54.967Z,97477.71
2019-01-31T14:37:27.241Z,97477.83
2019-01-31T14:39:59.617Z,97474.79
2019-01-31T14:42:31.843Z,97474.47
2019-01-31T14:45:04.401Z,97473.25
2019-01-31T14:47:36.668Z,97478.23
2019-01-31T14:50:13.817Z,97474.59
2019-01-31T14:52:46.730Z,97466.69
2019-01-31T14:55:18.873Z,97467.71
2019-01-31T14:57:51.020Z,97465.93
2019-01-31T15:00:29.373Z,97470.09
2019-01-31T15:03:01.485Z,97464.35
2019-01-31T15:05:36.597Z,97464.00
2019-01-31T15:08:07.912Z,97462.64
2019-01-31T15:10:40.131Z,97468.30
2019-01-31T15:13:12.251Z,97472.41
2019-01-31T15:15:44.387Z,97469.36
2019-01-31T15:18:16.569Z,97467.02
2019-01-31T15:20:49.680Z,97470.25
2019-01-31T15:23:21.906Z,97466.85
2019-01-31T15:25:54.184Z,97471.67
2019-01-31T15:28:26.390Z,97467.27
2019-01-31T15:30:58.539Z,97470.70
2019-01-31T15:33:30.648Z,97465.17
2019-01-31T15:36:02.788Z,97467.22
2019-01-31T15:38:34.896Z,97464.13
2019-01-31T15:41:07.270Z,97467.77
2019-01-31T15:43:39.685Z,97467.41
2019-01-31T15:46:11.854Z,97467.20
2019-01-31T15:48:43.971Z,97460.16
2019-01-31T15:51:16.106Z,97454.79
2019-01-31T15:53:48.246Z,97452.93
2019-01-31T15:56:20.572Z,97450.20
2019-01-31T15:58:52.711Z,97448.53
2019-01-31T16:01:26.094Z,97439.50
2019-01-31T16:04:00.848Z,97443.37
2019-01-31T16:06:32.201Z,97441.70
2019-01-31T16:09:06.175Z,97443.69
2019-01-31T16:11:38.715Z,97449.97
2019-01-31T16:14:11.041Z,97446.75
2019-01-31T16:16:44.137Z,97443.82
2019-01-31T16:19:16.312Z,97438.39
2019-01-31T16:21:48.534Z,97437.35
2019-01-31T16:24:20.947Z,97435.56
2019-01-31T16:26:53.085Z,97433.02
2019-01-31T16:29:25.316Z,97433.71
2019-01-31T16:31:57.713Z,97428.36
2019-01-31T16:34:31.023Z,97429.27
2019-01-31T16:37:03.378Z,97427.40
2019-01-31T16:39:35.498Z,97423.28
2019-01-31T16:42:07.706Z,97425.09
2019-01-31T16:44:40.045Z,97420.95
2019-01-31T16:47:12.256Z,97420.27
2019-01-31T16:49:44.383Z,97418.16
2019-01-31T16:52:16.551Z,97410.69
2019-01-31T16:54:48.686Z,97412.23
2019-01-31T16:57:20.826Z,97411.24
2019-01-31T16:59:52.937Z,97408.77
2019-01-31T17:02:25.400Z,97402.52
2019-01-31T17:04:57.532Z,97405.98
2019-01-31T17:07:29.677Z,97402.03
2019-01-31T17:10:01.875Z,97396.62
2019-01-31T17:12:34.379Z,97399.06
2019-01-31T17:15:17.698Z,97397.27
2019-01-31T17:17:41.138Z,97388.08
2019-01-31T17:20:21.713Z,97395.81
2019-01-31T17:22:53.850Z,97397.98
2019-01-31T17:25:26.198Z,97397.45
2019-01-31T17:27:58.452Z,97397.62
2019-01-31T17:30:30.582Z,97389.52
2019-01-31T17:33:02.727Z,97384.46
2019-01-31T17:35:34.920Z,97378.70
2019-01-31T17:38:07.202Z,97378.80
2019-01-31T17:40:41.903Z,97373.34
2019-01-31T17:43:14.859Z,97361.30
2019-01-31T17:45:46.989Z,97365.20
2019-01-31T17:48:19.126Z,97348.73
2019-01-31T17:50:51.315Z,97342.52
2019-01-31T17:53:23.467Z,97331.73
2019-01-31T17:55:55.585Z,97318.98
2019-01-31T17:58:27.795Z,97328.14
2019-01-31T18:01:00.003Z,97343.23
2019-01-31T18:03:32.577Z,97347.41
2019-01-31T18:06:04.764Z,97346.58
2019-01-31T18:08:37.259Z,97357.98
2019-01-31T18:11:09.385Z,97358.58
2019-01-31T18:13:41.530Z,97356.16
2019-01-31T18:16:13.633Z,97350.79
2019-01-31T18:18:46.799Z,97351.31
2019-01-31T18:21:18.928Z,97347.16
2019-01-31T18:23:51.056Z,97343.53
2019-01-31T18:26:23.168Z,97331.18
2019-01-31T18:28:55.325Z,97322.02
2019-01-31T18:31:27.451Z,97316.94
2019-01-31T18:33:59.711Z,97315.63
2019-01-31T18:36:31.842Z,97313.77
2019-01-31T18:39:09.526Z,97311.56
2019-01-31T18:41:41.711Z,97298.62
2019-01-31T18:44:13.859Z,97292.63
2019-01-31T18:46:45.967Z,97281.91
2019-01-31T18:49:18.163Z,97275.91
2019-01-31T18:51:50.246Z,97262.92
2019-01-31T18:54:22.522Z,97267.34
2019-01-31T18:56:54.632Z,97261.55
2019-01-31T18:59:26.783Z,97267.70
2019-01-31T19:01:58.946Z,97269.91
2019-01-31T19:04:31.083Z,97267.34
2019-01-31T19:07:03.293Z,97265.25
2019-01-31T19:09:35.421Z,97268.96
2019-01-31T19:12:07.867Z,97266.68
2019-01-31T19:14:40.648Z,97258.75
2019-01-31T19:17:12.770Z,97252.59
2019-01-31T19:19:45.335Z,97237.34
2019-01-31T19:22:17.551Z,97227.78
2019-01-31T19:24:49.983Z,97226.31
2019-01-31T19:27:22.135Z,97233.47
2019-01-31T19:29:54.588Z,97237.95
2019-01-31T19:32:26.787Z,97240.04
2019-01-31T19:34:59.152Z,97242.77
2019-01-31T19:37:31.324Z,97252.72
2019-01-31T19:40:03.471Z,97247.11
2019-01-31T19:42:36.062Z,97220.02
2019-01-31T19:45:12.950Z,97209.28
2019-01-31T19:47:45.275Z,97206.97
2019-01-31T19:50:17.407Z,97219.95
2019-01-31T19:52:49.543Z,97205.79
2019-01-31T19:55:21.681Z,97192.27
2019-01-31T19:57:53.860Z,97185.01
2019-01-31T20:00:26.040Z,97177.91
2019-01-31T20:02:58.227Z,97182.36
2019-01-31T20:05:30.438Z,97178.31
2019-01-31T20:08:02.577Z,97172.71
2019-01-31T20:10:34.997Z,97169.52
2019-01-31T20:13:07.124Z,97164.58
2019-01-31T20:15:39.382Z,97158.35
2019-01-31T20:18:11.650Z,97156.30
2019-01-31T20:20:43.913Z,97152.24
2019-01-31T20:23:16.364Z,97147.86
2019-01-31T20:25:48.821Z,97143.77
2019-01-31T20:28:22.177Z,97143.69
2019-01-31T20:30:54.728Z,97142.03
2019-01-31T20:33:26.907Z,97150.33
2019-01-31T20:35:59.110Z,97155.49
2019-01-31T20:38:31.298Z,97149.70
2019-01-31T20:41:03.734Z,97148.88
2019-01-31T20:43:35.983Z,97147.06
2019-01-31T20:46:08.334Z,97147.61
2019-01-31T20:48:40.762Z,97147.93
2019-01-31T20:51:12.978Z,97148.80
2019-01-31T20:53:54.210Z,97139.77
2019-01-31T20:56:26.415Z,97128.63
2019-01-31T20:58:58.535Z,97131.59
2019-01-31T21:01:30.688Z,97124.95
2019-01-31T21:04:02.874Z,97119.52
2019-01-31T21:06:41.336Z,97115.84
2019-01-31T21:09:09.210Z,97110.67
2019-01-31T21:11:42.966Z,97099.27
2019-01-31T21:14:15.422Z,97096.98
2019-01-31T21:16:51.784Z,97092.41
2019-01-31T21:19:21.425Z,97081.48
2019-01-31T21:21:53.560Z,97078.80
2019-01-31T21:24:25.758Z,97081.56
2019-01-31T21:26:57.927Z,97079.70
2019-01-31T21:29:30.046Z,97081.01
2019-01-31T21:32:02.182Z,97080.22
2019-01-31T21:34:34.374Z,97069.48
2019-01-31T21:37:06.502Z,97070.98
2019-01-31T21:39:38.611Z,97060.57
2019-01-31T21:42:10.761Z,97056.78
2019-01-31T21:44:42.857Z,97050.75
2019-01-31T21:47:14.999Z,97048.45
2019-01-31T21:49:47.251Z,97038.16
2019-01-31T21:52:20.716Z,97045.73
2019-01-31T21:54:52.831Z,97052.33
2019-01-31T21:57:24.963Z,97051.22
2019-01-31T21:59:58.077Z,97044.59
2019-01-31T22:02:30.139Z,97039.74
2019-01-31T22:05:02.240Z,97038.83
2019-01-31T22:07:34.676Z,97032.88
2019-01-31T22:10:08.314Z,97029.13
2019-01-31T22:12:40.450Z,97024.67
2019-01-31T22:15:25.555Z,97027.11
2019-01-31T22:18:00.244Z,97031.09
2019-01-31T22:20:31.586Z,97040.01
2019-01-31T22:23:03.711Z,97043.08
2019-01-31T22:25:35.829Z,97040.63
2019-01-31T22:28:09.036Z,97032.85
2019-01-31T22:30:41.217Z,97028.03
2019-01-31T22:33:13.356Z,97028.07
2019-01-31T22:35:45.547Z,97028.62
2019-01-31T22:38:17.684Z,97024.55
2019-01-31T22:40:49.802Z,97022.69
2019-01-31T22:43:21.940Z,97026.05
2019-01-31T22:45:54.056Z,97029.12
2019-01-31T22:48:26.198Z,97030.58
2019-01-31T22:50:59.393Z,97037.68
2019-01-31T22:53:31.628Z,97037.45
2019-01-31T22:56:03.750Z,97037.09
2019-01-31T22:58:35.902Z,97038.01
2019-01-31T23:01:35.862Z,97032.91
2019-01-31T23:04:08.104Z,97022.42
2019-01-31T23:06:41.272Z,97018.59
2019-01-31T23:09:14.130Z,97013.83
2019-01-31T23:11:46.232Z,97012.25
2019-01-31T23:14:18.370Z,97001.86
2019-01-31T23:16:50.553Z,96985.25
2019-01-31T23:19:22.697Z,96983.32
2019-01-31T23:21:54.804Z,96974.96
2019-01-31T23:24:26.944Z,96974.73
2019-01-31T23:26:59.126Z,96974.06
2019-01-31T23:29:31.266Z,96967.87
2019-01-31T23:32:03.380Z,96977.66
2019-01-31T23:34:35.517Z,96985.05
2019-01-31T23:37:07.634Z,96979.98
2019-01-31T23:39:39.762Z,96978.02
2019-01-31T23:42:11.940Z,96967.16
2019-01-31T23:44:44.085Z,96968.05
2019-01-31T23:47:16.396Z,96968.45
2019-01-31T23:49:48.546Z,96966.97
2019-01-31T23:52:20.906Z,96952.71
2019-01-31T23:54:53.056Z,96944.19
2019-01-31T23:57:25.175Z,96937.31
2019-01-31T23:59:57.315Z,96939.59
